Impacts METAR Board
IDs:

KSFO - San Francisco Intl, CA, US

Updated at: 1200 UTC 16 Sep 2019
Potential Impact None Slight Moderate High
Time 16/00Z 16/01Z 16/02Z 16/03Z 16/04Z 16/05Z 16/06Z 16/07Z 16/08Z 16/09Z 16/10Z 16/11Z 16/12Z
Temp72 69 67 67 67 68 66 67 67 67 67 67 64
Dewpt58 59 61 62 62 61 61 61 62 62 63 62 60
Altim29.85 29.86 29.86 29.87 29.88 29.87 29.87 29.87 29.87 29.87 29.86 29.86 29.87
VIS10 10 10 10 10 10 10 10 10 10 10 10 2.5
CIG200 14 10 10 10 200 15 12 11 12 10 27 7
CoverBKNBKNBKNOVCOVCBKNBKNBKNOVCOVCBKNOVCOVC
FltCatVFRMVFRMVFRMVFRMVFRVFRMVFRMVFRMVFRMVFRMVFRMVFRIFR
WX---------------------DZ-DZBR
WDir260260260270260240260240250250230240270
WSpd17 16 14 14 14 16 7 9 7 5 7 9 10
WGst21 -- -- -- -- -- -- -- -- -- -- -- --
Raw hourly METARs
KSFO 152356Z 26017G21KT 10SM FEW013 SCT180 BKN200 22/14 A2985 RMK AO2 PK WND 27026/2259 SLP108 T02220144 10228 20194 56013
KSFO 160056Z 26016KT 10SM FEW008 BKN014 21/15 A2986 RMK AO2 SLP112 T02060150
KSFO 160156Z 26014KT 10SM FEW005 BKN010 BKN016 19/16 A2986 RMK AO2 SLP112 T01940161
KSFO 160256Z 27014KT 10SM FEW003 OVC010 19/17 A2987 RMK AO2 SLP113 T01940167 51005
KSFO 160356Z COR 26014KT 10SM FEW003 SCT007 OVC010 19/17 A2988 RMK AO2 SLP117 T01940167
KSFO 160456Z 24016KT 10SM FEW007 SCT019 BKN200 20/16 A2987 RMK AO2 SLP113 T02000161
KSFO 160556Z 26007KT 10SM FEW007 BKN015 19/16 A2987 RMK AO2 SLP114 T01890161 10222 20189 51001
KSFO 160656Z 24009KT 10SM FEW007 BKN012 19/16 A2987 RMK AO2 SLP114 T01940161
KSFO 160756Z 25007KT 10SM FEW007 BKN011 OVC021 19/17 A2987 RMK AO2 SLP113 T01940167 402280150
KSFO 160856Z 25005KT 10SM BKN012 OVC028 19/17 A2987 RMK AO2 SLP113 T01940167 57001
KSFO 160956Z 23007KT 10SM -DZ BKN010 19/17 A2986 RMK AO2 RAB32E41DZB49 SLP110 P0000 T01940172
KSFO 161056Z 24009KT 10SM -DZ BKN027 OVC055 19/17 A2986 RMK AO2 SLP110 P0000 T01940167
KSFO 161159Z 27010KT 2 1/2SM BR BKN007 OVC013 18/16 A2987 RMK AO2 T01780156



Page loaded:  12:05 UTC  |   05:05 AM Pacific  |   06:05 AM Mountain  |   07:05 AM Central  |   08:05 AM Eastern

 

ADVISORIES

FORECASTS

FORECASTS

OBSERVATIONS

USER TOOLS

ABOUT US